sensor_id;sensor_type;location;lat;lon;timestamp;pressure;altitude;pressure_sealevel;temperature;humidity
3096;BME280;1558;42.700;23.360;2022-07-12T00:02:19;95735.28;;;14.06;79.24
3096;BME280;1558;42.700;23.360;2022-07-12T00:04:47;95755.59;;;14.12;78.60
3096;BME280;1558;42.700;23.360;2022-07-12T00:07:15;95753.81;;;14.04;78.27
3096;BME280;1558;42.700;23.360;2022-07-12T00:09:45;95756.75;;;14.11;78.66
3096;BME280;1558;42.700;23.360;2022-07-12T00:12:13;95754.03;;;14.11;78.22
3096;BME280;1558;42.700;23.360;2022-07-12T00:14:40;95760.94;;;14.09;78.14
3096;BME280;1558;42.700;23.360;2022-07-12T00:17:08;95755.13;;;14.22;78.97
3096;BME280;1558;42.700;23.360;2022-07-12T00:19:37;95763.50;;;14.17;78.17
3096;BME280;1558;42.700;23.360;2022-07-12T00:22:05;95754.56;;;14.17;78.58
3096;BME280;1558;42.700;23.360;2022-07-12T00:24:32;95756.16;;;14.18;79.31
3096;BME280;1558;42.700;23.360;2022-07-12T00:27:02;95755.94;;;14.23;78.76
3096;BME280;1558;42.700;23.360;2022-07-12T00:29:30;95765.13;;;14.06;78.20
3096;BME280;1558;42.700;23.360;2022-07-12T00:31:58;95754.38;;;13.98;79.05
3096;BME280;1558;42.700;23.360;2022-07-12T00:34:26;95758.00;;;13.90;79.41
3096;BME280;1558;42.700;23.360;2022-07-12T00:36:54;95754.66;;;13.69;79.90
3096;BME280;1558;42.700;23.360;2022-07-12T00:39:22;95688.00;;;13.31;81.27
3096;BME280;1558;42.700;23.360;2022-07-12T00:41:50;95749.31;;;13.72;81.07
3096;BME280;1558;42.700;23.360;2022-07-12T00:44:19;95753.16;;;13.83;82.05
3096;BME280;1558;42.700;23.360;2022-07-12T00:46:47;95747.91;;;14.14;83.11
3096;BME280;1558;42.700;23.360;2022-07-12T00:49:15;95711.56;;;13.91;81.55
3096;BME280;1558;42.700;23.360;2022-07-12T00:51:44;95726.81;;;13.96;82.52
3096;BME280;1558;42.700;23.360;2022-07-12T00:54:14;95727.41;;;14.29;82.60
3096;BME280;1558;42.700;23.360;2022-07-12T00:56:43;95730.50;;;14.15;80.78
3096;BME280;1558;42.700;23.360;2022-07-12T00:59:11;95738.59;;;13.88;80.65
3096;BME280;1558;42.700;23.360;2022-07-12T01:01:42;95742.78;;;13.73;82.05
3096;BME280;1558;42.700;23.360;2022-07-12T01:04:10;95726.97;;;13.39;82.14
3096;BME280;1558;42.700;23.360;2022-07-12T01:06:38;95749.31;;;13.60;84.25
3096;BME280;1558;42.700;23.360;2022-07-12T01:09:06;95751.94;;;13.69;84.36
3096;BME280;1558;42.700;23.360;2022-07-12T01:11:35;95738.81;;;13.71;83.68
3096;BME280;1558;42.700;23.360;2022-07-12T01:14:03;95753.41;;;13.54;84.01
3096;BME280;1558;42.700;23.360;2022-07-12T01:16:32;95758.38;;;13.52;85.51
3096;BME280;1558;42.700;23.360;2022-07-12T01:19:04;95744.13;;;13.67;87.30
3096;BME280;1558;42.700;23.360;2022-07-12T01:21:37;95737.56;;;13.32;85.48
3096;BME280;1558;42.700;23.360;2022-07-12T01:24:08;95753.34;;;13.18;85.47
3096;BME280;1558;42.700;23.360;2022-07-12T01:26:37;95756.66;;;12.90;85.42
3096;BME280;1558;42.700;23.360;2022-07-12T01:29:06;95696.50;;;12.40;86.68
3096;BME280;1558;42.700;23.360;2022-07-12T01:31:35;95738.84;;;12.57;86.69
3096;BME280;1558;42.700;23.360;2022-07-12T01:34:04;95761.75;;;12.59;87.33
3096;BME280;1558;42.700;23.360;2022-07-12T01:36:33;95755.41;;;12.55;88.23
3096;BME280;1558;42.700;23.360;2022-07-12T01:39:03;95742.69;;;12.35;88.46
3096;BME280;1558;42.700;23.360;2022-07-12T01:41:32;95755.88;;;12.37;89.36
3096;BME280;1558;42.700;23.360;2022-07-12T01:44:00;95757.53;;;12.29;90.01
3096;BME280;1558;42.700;23.360;2022-07-12T01:46:28;95739.88;;;12.11;90.51
3096;BME280;1558;42.700;23.360;2022-07-12T01:48:56;95750.81;;;12.14;90.81
3096;BME280;1558;42.700;23.360;2022-07-12T01:51:24;95739.69;;;11.95;91.18
3096;BME280;1558;42.700;23.360;2022-07-12T01:53:52;95741.88;;;11.93;91.53
3096;BME280;1558;42.700;23.360;2022-07-12T01:56:20;95736.09;;;11.83;92.14
3096;BME280;1558;42.700;23.360;2022-07-12T01:58:50;95737.38;;;11.77;92.62
3096;BME280;1558;42.700;23.360;2022-07-12T02:01:19;95690.53;;;11.43;93.35
3096;BME280;1558;42.700;23.360;2022-07-12T02:03:47;95754.41;;;11.77;94.04
3096;BME280;1558;42.700;23.360;2022-07-12T02:06:15;95752.88;;;11.68;94.64
3096;BME280;1558;42.700;23.360;2022-07-12T02:08:43;95752.88;;;11.68;95.46
3096;BME280;1558;42.700;23.360;2022-07-12T02:11:11;95753.19;;;11.66;96.05
3096;BME280;1558;42.700;23.360;2022-07-12T02:13:39;95757.78;;;11.66;97.05
3096;BME280;1558;42.700;23.360;2022-07-12T02:16:09;95736.66;;;11.38;96.79
3096;BME280;1558;42.700;23.360;2022-07-12T02:18:37;95751.69;;;11.48;98.78
3096;BME280;1558;42.700;23.360;2022-07-12T02:21:08;95761.38;;;11.49;100.00
3096;BME280;1558;42.700;23.360;2022-07-12T02:23:36;95755.94;;;11.57;100.00
3096;BME280;1558;42.700;23.360;2022-07-12T02:26:04;95729.28;;;11.47;100.00
3096;BME280;1558;42.700;23.360;2022-07-12T02:28:32;95674.91;;;11.20;100.00
3096;BME280;1558;42.700;23.360;2022-07-12T02:31:00;95748.88;;;11.74;100.00
3096;BME280;1558;42.700;23.360;2022-07-12T02:33:30;95762.09;;;11.67;100.00
3096;BME280;1558;42.700;23.360;2022-07-12T02:35:58;95752.44;;;11.86;100.00
3096;BME280;1558;42.700;23.360;2022-07-12T02:38:26;95748.34;;;12.01;100.00
3096;BME280;1558;42.700;23.360;2022-07-12T02:40:54;95756.94;;;12.03;100.00
3096;BME280;1558;42.700;23.360;2022-07-12T02:43:23;95762.59;;;11.89;100.00
3096;BME280;1558;42.700;23.360;2022-07-12T02:45:52;95765.09;;;11.74;100.00
3096;BME280;1558;42.700;23.360;2022-07-12T02:48:20;95767.78;;;11.74;100.00
3096;BME280;1558;42.700;23.360;2022-07-12T02:50:50;95762.25;;;11.62;100.00
3096;BME280;1558;42.700;23.360;2022-07-12T02:53:20;95748.41;;;11.63;100.00
3096;BME280;1558;42.700;23.360;2022-07-12T02:55:49;95765.56;;;11.76;100.00
3096;BME280;1558;42.700;23.360;2022-07-12T02:58:18;95766.19;;;11.73;100.00
3096;BME280;1558;42.700;23.360;2022-07-12T03:00:45;95772.88;;;11.67;100.00
3096;BME280;1558;42.700;23.360;2022-07-12T03:03:14;95751.81;;;11.51;100.00
3096;BME280;1558;42.700;23.360;2022-07-12T03:05:43;95774.13;;;11.78;100.00
3096;BME280;1558;42.700;23.360;2022-07-12T03:08:13;95726.47;;;11.35;100.00
3096;BME280;1558;42.700;23.360;2022-07-12T03:10:41;95787.69;;;11.61;100.00
3096;BME280;1558;42.700;23.360;2022-07-12T03:13:09;95789.78;;;11.55;100.00
3096;BME280;1558;42.700;23.360;2022-07-12T03:15:37;95794.34;;;11.72;100.00
3096;BME280;1558;42.700;23.360;2022-07-12T03:18:05;95790.38;;;11.61;100.00
3096;BME280;1558;42.700;23.360;2022-07-12T03:20:33;95796.91;;;11.68;100.00
3096;BME280;1558;42.700;23.360;2022-07-12T03:23:01;95793.41;;;11.68;100.00
3096;BME280;1558;42.700;23.360;2022-07-12T03:25:31;95799.09;;;11.75;100.00
3096;BME280;1558;42.700;23.360;2022-07-12T03:27:58;95803.56;;;11.71;100.00
3096;BME280;1558;42.700;23.360;2022-07-12T03:30:26;95803.56;;;11.71;100.00
3096;BME280;1558;42.700;23.360;2022-07-12T03:32:55;95708.75;;;11.17;100.00
3096;BME280;1558;42.700;23.360;2022-07-12T03:35:23;95793.25;;;11.64;100.00
3096;BME280;1558;42.700;23.360;2022-07-12T03:37:52;95799.44;;;11.65;100.00
3096;BME280;1558;42.700;23.360;2022-07-12T03:40:20;95801.88;;;11.57;100.00
3096;BME280;1558;42.700;23.360;2022-07-12T03:42:51;95799.06;;;11.45;100.00
3096;BME280;1558;42.700;23.360;2022-07-12T03:45:22;95807.28;;;11.49;100.00
3096;BME280;1558;42.700;23.360;2022-07-12T03:47:50;95779.94;;;11.50;100.00
3096;BME280;1558;42.700;23.360;2022-07-12T03:50:17;95805.44;;;11.79;100.00
3096;BME280;1558;42.700;23.360;2022-07-12T03:52:46;95811.13;;;11.86;100.00
3096;BME280;1558;42.700;23.360;2022-07-12T03:55:14;95790.50;;;11.73;100.00
3096;BME280;1558;42.700;23.360;2022-07-12T03:57:42;95797.69;;;11.98;100.00
3096;BME280;1558;42.700;23.360;2022-07-12T04:00:15;95812.22;;;11.85;100.00
3096;BME280;1558;42.700;23.360;2022-07-12T04:02:43;95813.38;;;11.84;100.00
3096;BME280;1558;42.700;23.360;2022-07-12T04:05:11;95810.59;;;11.92;100.00
3096;BME280;1558;42.700;23.360;2022-07-12T04:07:39;95822.22;;;11.93;100.00
3096;BME280;1558;42.700;23.360;2022-07-12T04:10:09;95819.97;;;11.95;100.00
3096;BME280;1558;42.700;23.360;2022-07-12T04:12:37;95822.09;;;12.10;100.00
3096;BME280;1558;42.700;23.360;2022-07-12T04:15:07;95816.38;;;12.11;100.00
3096;BME280;1558;42.700;23.360;2022-07-12T04:17:37;95743.47;;;11.65;100.00
3096;BME280;1558;42.700;23.360;2022-07-12T04:20:06;95827.00;;;12.16;100.00
3096;BME280;1558;42.700;23.360;2022-07-12T04:22:35;95827.13;;;12.20;99.67
3096;BME280;1558;42.700;23.360;2022-07-12T04:25:03;95827.59;;;12.22;99.78
3096;BME280;1558;42.700;23.360;2022-07-12T04:27:32;95734.91;;;11.72;99.32
3096;BME280;1558;42.700;23.360;2022-07-12T04:30:00;95826.81;;;12.42;98.50
3096;BME280;1558;42.700;23.360;2022-07-12T04:32:29;95757.34;;;11.93;97.37
3096;BME280;1558;42.700;23.360;2022-07-12T04:34:58;95829.44;;;12.51;97.57
3096;BME280;1558;42.700;23.360;2022-07-12T04:37:26;95830.66;;;12.62;95.94
3096;BME280;1558;42.700;23.360;2022-07-12T04:39:54;95836.63;;;12.67;95.83
3096;BME280;1558;42.700;23.360;2022-07-12T04:42:22;95840.75;;;12.73;95.27
3096;BME280;1558;42.700;23.360;2022-07-12T04:44:50;95845.28;;;13.02;94.77
3096;BME280;1558;42.700;23.360;2022-07-12T04:47:18;95827.44;;;13.01;93.39
3096;BME280;1558;42.700;23.360;2022-07-12T04:49:46;95818.78;;;13.08;92.80
3096;BME280;1558;42.700;23.360;2022-07-12T04:52:15;95843.00;;;13.25;91.71
3096;BME280;1558;42.700;23.360;2022-07-12T04:54:43;95862.59;;;13.42;91.58
3096;BME280;1558;42.700;23.360;2022-07-12T04:57:11;95828.00;;;13.39;89.73
3096;BME280;1558;42.700;23.360;2022-07-12T04:59:39;95849.81;;;13.55;90.80
3096;BME280;1558;42.700;23.360;2022-07-12T05:02:07;95834.81;;;13.57;89.79
3096;BME280;1558;42.700;23.360;2022-07-12T05:04:35;95840.38;;;13.73;89.33
3096;BME280;1558;42.700;23.360;2022-07-12T05:07:03;95776.88;;;13.38;88.47
3096;BME280;1558;42.700;23.360;2022-07-12T05:09:32;95840.03;;;13.87;89.35
3096;BME280;1558;42.700;23.360;2022-07-12T05:12:00;95837.47;;;13.90;87.67
3096;BME280;1558;42.700;23.360;2022-07-12T05:14:28;95835.66;;;14.31;87.50
3096;BME280;1558;42.700;23.360;2022-07-12T05:16:56;95832.53;;;14.96;85.65
3096;BME280;1558;42.700;23.360;2022-07-12T05:19:24;95840.16;;;15.34;82.30
3096;BME280;1558;42.700;23.360;2022-07-12T05:21:52;95792.88;;;15.23;79.89
3096;BME280;1558;42.700;23.360;2022-07-12T05:24:20;95831.81;;;15.70;79.54
3096;BME280;1558;42.700;23.360;2022-07-12T05:26:50;95838.56;;;16.23;78.19
3096;BME280;1558;42.700;23.360;2022-07-12T05:29:18;95812.56;;;16.60;76.06
3096;BME280;1558;42.700;23.360;2022-07-12T05:31:46;95847.16;;;16.95;74.26
3096;BME280;1558;42.700;23.360;2022-07-12T05:34:14;95848.00;;;17.18;72.80
3096;BME280;1558;42.700;23.360;2022-07-12T05:36:42;95837.50;;;17.39;71.92
3096;BME280;1558;42.700;23.360;2022-07-12T05:39:10;95821.00;;;17.74;70.93
3096;BME280;1558;42.700;23.360;2022-07-12T05:41:38;95835.75;;;18.67;68.57
3096;BME280;1558;42.700;23.360;2022-07-12T05:44:08;95832.25;;;19.63;65.93
3096;BME280;1558;42.700;23.360;2022-07-12T05:46:36;95838.22;;;20.15;62.70
3096;BME280;1558;42.700;23.360;2022-07-12T05:49:04;95831.25;;;20.79;60.66
3096;BME280;1558;42.700;23.360;2022-07-12T05:51:32;95832.84;;;20.84;58.14
3096;BME280;1558;42.700;23.360;2022-07-12T05:54:18;95824.53;;;20.70;58.55
3096;BME280;1558;42.700;23.360;2022-07-12T05:56:46;95836.59;;;21.37;57.23
3096;BME280;1558;42.700;23.360;2022-07-12T05:59:15;95817.72;;;21.15;55.74
3096;BME280;1558;42.700;23.360;2022-07-12T06:01:43;95836.69;;;21.62;54.96
3096;BME280;1558;42.700;23.360;2022-07-12T06:04:11;95826.84;;;21.43;55.63
3096;BME280;1558;42.700;23.360;2022-07-12T06:06:39;95819.84;;;21.67;54.86
3096;BME280;1558;42.700;23.360;2022-07-12T06:09:07;95828.88;;;21.75;54.68
3096;BME280;1558;42.700;23.360;2022-07-12T06:11:35;95779.84;;;22.08;53.38
3096;BME280;1558;42.700;23.360;2022-07-12T06:14:03;95809.28;;;22.47;52.76
3096;BME280;1558;42.700;23.360;2022-07-12T06:16:32;95816.72;;;22.57;52.41
3096;BME280;1558;42.700;23.360;2022-07-12T06:19:00;95811.59;;;22.80;51.63
3096;BME280;1558;42.700;23.360;2022-07-12T06:21:28;95794.66;;;22.85;51.55
3096;BME280;1558;42.700;23.360;2022-07-12T06:23:56;95820.06;;;23.35;49.77
3096;BME280;1558;42.700;23.360;2022-07-12T06:26:24;95821.63;;;23.32;49.88
3096;BME280;1558;42.700;23.360;2022-07-12T06:28:52;95800.03;;;23.20;49.34
3096;BME280;1558;42.700;23.360;2022-07-12T06:31:20;95813.06;;;23.09;48.92
3096;BME280;1558;42.700;23.360;2022-07-12T06:33:51;95781.72;;;22.75;49.14
3096;BME280;1558;42.700;23.360;2022-07-12T06:36:19;95815.38;;;23.18;48.79
3096;BME280;1558;42.700;23.360;2022-07-12T06:38:47;95820.81;;;23.46;47.93
3096;BME280;1558;42.700;23.360;2022-07-12T06:41:15;95794.47;;;24.00;47.09
3096;BME280;1558;42.700;23.360;2022-07-12T06:43:43;95813.72;;;23.48;47.27
3096;BME280;1558;42.700;23.360;2022-07-12T06:46:11;95811.13;;;22.99;47.74
3096;BME280;1558;42.700;23.360;2022-07-12T06:48:39;95799.75;;;22.97;47.74
3096;BME280;1558;42.700;23.360;2022-07-12T06:51:09;95801.44;;;22.49;49.00
3096;BME280;1558;42.700;23.360;2022-07-12T06:53:37;95781.13;;;23.29;48.25
3096;BME280;1558;42.700;23.360;2022-07-12T06:56:06;95793.06;;;23.78;47.31
3096;BME280;1558;42.700;23.360;2022-07-12T06:58:34;95793.84;;;23.82;45.63
3096;BME280;1558;42.700;23.360;2022-07-12T07:01:02;95771.22;;;24.04;45.89
3096;BME280;1558;42.700;23.360;2022-07-12T07:03:30;95797.34;;;24.81;44.86
3096;BME280;1558;42.700;23.360;2022-07-12T07:05:57;95800.31;;;24.57;44.41
3096;BME280;1558;42.700;23.360;2022-07-12T07:08:27;95797.06;;;24.65;44.75
3096;BME280;1558;42.700;23.360;2022-07-12T07:10:56;95779.47;;;24.93;43.30
3096;BME280;1558;42.700;23.360;2022-07-12T07:13:24;95794.16;;;25.17;43.02
3096;BME280;1558;42.700;23.360;2022-07-12T07:15:52;95793.72;;;25.22;42.31
3096;BME280;1558;42.700;23.360;2022-07-12T07:18:21;95775.09;;;24.96;42.07
3096;BME280;1558;42.700;23.360;2022-07-12T07:20:53;95738.25;;;24.35;40.61
3096;BME280;1558;42.700;23.360;2022-07-12T07:23:22;95795.28;;;24.48;40.19
3096;BME280;1558;42.700;23.360;2022-07-12T07:25:51;95793.56;;;24.61;41.35
3096;BME280;1558;42.700;23.360;2022-07-12T07:28:19;95793.34;;;24.42;42.33
3096;BME280;1558;42.700;23.360;2022-07-12T07:31:07;95792.31;;;25.07;41.72
3096;BME280;1558;42.700;23.360;2022-07-12T07:33:34;95793.56;;;25.32;41.87
3096;BME280;1558;42.700;23.360;2022-07-12T07:36:02;95770.25;;;25.67;41.23
3096;BME280;1558;42.700;23.360;2022-07-12T07:38:30;95777.78;;;26.40;39.81
3096;BME280;1558;42.700;23.360;2022-07-12T07:41:00;95783.75;;;26.38;39.00
3096;BME280;1558;42.700;23.360;2022-07-12T07:43:28;95796.53;;;25.79;38.72
3096;BME280;1558;42.700;23.360;2022-07-12T07:45:56;95764.50;;;26.31;38.52
3096;BME280;1558;42.700;23.360;2022-07-12T07:48:24;95787.25;;;26.85;36.91
3096;BME280;1558;42.700;23.360;2022-07-12T07:50:52;95782.88;;;26.88;36.92
3096;BME280;1558;42.700;23.360;2022-07-12T07:53:20;95778.16;;;26.18;36.37
3096;BME280;1558;42.700;23.360;2022-07-12T07:55:48;95755.91;;;25.72;36.11
3096;BME280;1558;42.700;23.360;2022-07-12T07:58:18;95746.31;;;25.27;36.83
3096;BME280;1558;42.700;23.360;2022-07-12T08:00:49;95782.81;;;25.72;35.60
3096;BME280;1558;42.700;23.360;2022-07-12T08:03:18;95791.84;;;25.99;35.91
3096;BME280;1558;42.700;23.360;2022-07-12T08:05:46;95743.81;;;26.16;35.24
3096;BME280;1558;42.700;23.360;2022-07-12T08:08:14;95772.22;;;26.86;34.47
3096;BME280;1558;42.700;23.360;2022-07-12T08:10:42;95779.53;;;26.03;34.53
3096;BME280;1558;42.700;23.360;2022-07-12T08:13:10;95776.94;;;25.06;36.71
3096;BME280;1558;42.700;23.360;2022-07-12T08:15:39;95765.47;;;25.94;36.04
3096;BME280;1558;42.700;23.360;2022-07-12T08:18:07;95741.75;;;26.63;35.24
3096;BME280;1558;42.700;23.360;2022-07-12T08:20:35;95738.31;;;26.98;33.80
3096;BME280;1558;42.700;23.360;2022-07-12T08:23:13;95761.91;;;26.20;34.98
3096;BME280;1558;42.700;23.360;2022-07-12T08:25:42;95752.22;;;26.55;35.06
3096;BME280;1558;42.700;23.360;2022-07-12T08:28:10;95740.28;;;24.68;36.18
3096;BME280;1558;42.700;23.360;2022-07-12T08:30:39;95732.78;;;23.25;38.70
3096;BME280;1558;42.700;23.360;2022-07-12T08:33:13;95761.25;;;24.21;37.90
3096;BME280;1558;42.700;23.360;2022-07-12T08:35:42;95740.13;;;24.85;37.63
3096;BME280;1558;42.700;23.360;2022-07-12T08:38:10;95753.13;;;26.26;35.90
3096;BME280;1558;42.700;23.360;2022-07-12T08:40:38;95753.34;;;26.81;34.51
3096;BME280;1558;42.700;23.360;2022-07-12T08:43:06;95728.94;;;27.31;32.95
3096;BME280;1558;42.700;23.360;2022-07-12T08:45:35;95748.69;;;27.33;33.02
3096;BME280;1558;42.700;23.360;2022-07-12T08:48:05;95755.09;;;26.91;32.08
3096;BME280;1558;42.700;23.360;2022-07-12T08:50:34;95737.34;;;27.08;32.09
3096;BME280;1558;42.700;23.360;2022-07-12T08:53:10;95750.84;;;27.06;31.17
3096;BME280;1558;42.700;23.360;2022-07-12T08:55:38;95747.41;;;27.18;31.69
3096;BME280;1558;42.700;23.360;2022-07-12T08:58:15;95742.28;;;27.72;31.25
3096;BME280;1558;42.700;23.360;2022-07-12T09:00:44;95722.31;;;28.13;30.83
3096;BME280;1558;42.700;23.360;2022-07-12T09:03:17;95727.91;;;26.86;31.83
3096;BME280;1558;42.700;23.360;2022-07-12T09:05:48;95741.91;;;24.99;34.57
3096;BME280;1558;42.700;23.360;2022-07-12T09:08:18;95725.44;;;23.70;37.51
3096;BME280;1558;42.700;23.360;2022-07-12T09:10:54;95706.53;;;25.21;36.57
3096;BME280;1558;42.700;23.360;2022-07-12T09:13:46;95741.91;;;25.86;35.52
3096;BME280;1558;42.700;23.360;2022-07-12T09:16:17;95722.06;;;25.38;35.67
3096;BME280;1558;42.700;23.360;2022-07-12T09:18:48;95737.94;;;25.87;34.27
3096;BME280;1558;42.700;23.360;2022-07-12T09:21:26;95706.22;;;25.42;34.69
3096;BME280;1558;42.700;23.360;2022-07-12T09:23:55;95729.22;;;24.68;35.08
3096;BME280;1558;42.700;23.360;2022-07-12T09:26:24;95662.47;;;23.06;37.54
3096;BME280;1558;42.700;23.360;2022-07-12T09:28:52;95726.78;;;24.40;37.07
3096;BME280;1558;42.700;23.360;2022-07-12T09:31:20;95680.28;;;25.06;36.16
3096;BME280;1558;42.700;23.360;2022-07-12T09:34:02;95722.56;;;26.33;34.46
3096;BME280;1558;42.700;23.360;2022-07-12T09:36:57;95714.56;;;26.81;33.09
3096;BME280;1558;42.700;23.360;2022-07-12T09:39:25;95717.53;;;27.10;32.41
3096;BME280;1558;42.700;23.360;2022-07-12T09:41:54;95715.09;;;27.31;33.28
3096;BME280;1558;42.700;23.360;2022-07-12T09:44:24;95711.31;;;26.63;32.56
3096;BME280;1558;42.700;23.360;2022-07-12T09:46:54;95723.34;;;25.30;34.61
3096;BME280;1558;42.700;23.360;2022-07-12T09:49:28;95705.31;;;24.20;36.29
3096;BME280;1558;42.700;23.360;2022-07-12T09:51:57;95717.44;;;23.82;36.28
3096;BME280;1558;42.700;23.360;2022-07-12T09:54:26;95720.66;;;23.74;36.44
3096;BME280;1558;42.700;23.360;2022-07-12T09:56:59;95725.19;;;25.40;35.79
3096;BME280;1558;42.700;23.360;2022-07-12T09:59:29;95717.00;;;26.56;33.14
3096;BME280;1558;42.700;23.360;2022-07-12T10:02:00;95713.09;;;26.73;32.80
3096;BME280;1558;42.700;23.360;2022-07-12T10:04:32;95674.47;;;26.27;31.82
3096;BME280;1558;42.700;23.360;2022-07-12T10:07:01;95701.59;;;27.33;31.23
3096;BME280;1558;42.700;23.360;2022-07-12T10:09:29;95683.72;;;27.34;31.35
3096;BME280;1558;42.700;23.360;2022-07-12T10:11:58;95696.44;;;26.96;31.49
3096;BME280;1558;42.700;23.360;2022-07-12T10:14:29;95707.84;;;26.98;31.60
3096;BME280;1558;42.700;23.360;2022-07-12T10:16:58;95712.91;;;27.59;30.82
3096;BME280;1558;42.700;23.360;2022-07-12T10:19:28;95703.34;;;28.11;29.54
3096;BME280;1558;42.700;23.360;2022-07-12T10:21:59;95706.38;;;27.13;30.24
3096;BME280;1558;42.700;23.360;2022-07-12T10:24:47;95699.38;;;24.59;33.79
3096;BME280;1558;42.700;23.360;2022-07-12T10:27:32;95700.78;;;25.35;34.06
3096;BME280;1558;42.700;23.360;2022-07-12T10:30:21;95691.28;;;26.36;31.95
3096;BME280;1558;42.700;23.360;2022-07-12T10:32:51;95696.53;;;27.28;30.67
3096;BME280;1558;42.700;23.360;2022-07-12T10:35:21;95695.41;;;27.45;30.37
3096;BME280;1558;42.700;23.360;2022-07-12T10:38:19;95688.66;;;26.48;30.79
3096;BME280;1558;42.700;23.360;2022-07-12T10:40:50;95651.22;;;27.03;31.15
3096;BME280;1558;42.700;23.360;2022-07-12T10:43:28;95684.75;;;26.26;32.16
3096;BME280;1558;42.700;23.360;2022-07-12T10:46:17;95692.38;;;26.61;31.40
3096;BME280;1558;42.700;23.360;2022-07-12T10:48:49;95699.28;;;27.12;31.26
3096;BME280;1558;42.700;23.360;2022-07-12T10:51:18;95694.00;;;26.98;31.01
3096;BME280;1558;42.700;23.360;2022-07-12T10:53:49;95686.19;;;26.54;31.75
3096;BME280;1558;42.700;23.360;2022-07-12T10:56:20;95688.34;;;26.85;30.89
3096;BME280;1558;42.700;23.360;2022-07-12T10:58:56;95551.16;;;26.45;29.92
3096;BME280;1558;42.700;23.360;2022-07-12T11:01:26;95685.81;;;27.30;30.56
3096;BME280;1558;42.700;23.360;2022-07-12T11:03:55;95686.06;;;27.88;29.88
3096;BME280;1558;42.700;23.360;2022-07-12T11:06:26;95688.59;;;28.59;28.35
3096;BME280;1558;42.700;23.360;2022-07-12T11:08:59;95621.03;;;26.69;29.75
3096;BME280;1558;42.700;23.360;2022-07-12T11:11:30;95684.56;;;26.13;30.81
3096;BME280;1558;42.700;23.360;2022-07-12T11:13:59;95696.03;;;25.89;32.13
3096;BME280;1558;42.700;23.360;2022-07-12T11:16:29;95696.63;;;26.00;31.97
3096;BME280;1558;42.700;23.360;2022-07-12T11:18:57;95683.53;;;27.25;30.83
3096;BME280;1558;42.700;23.360;2022-07-12T11:21:26;95696.09;;;27.82;30.63
3096;BME280;1558;42.700;23.360;2022-07-12T11:23:54;95691.34;;;26.32;31.83
3096;BME280;1558;42.700;23.360;2022-07-12T11:26:25;95695.03;;;24.96;33.25
3096;BME280;1558;42.700;23.360;2022-07-12T11:28:57;95697.63;;;25.06;33.35
3096;BME280;1558;42.700;23.360;2022-07-12T11:31:26;95672.88;;;24.99;34.03
3096;BME280;1558;42.700;23.360;2022-07-12T11:33:54;95690.56;;;25.05;34.19
3096;BME280;1558;42.700;23.360;2022-07-12T11:36:25;95668.16;;;24.32;34.82
3096;BME280;1558;42.700;23.360;2022-07-12T11:38:53;95683.13;;;24.99;33.80
3096;BME280;1558;42.700;23.360;2022-07-12T11:41:21;95610.63;;;24.95;33.84
3096;BME280;1558;42.700;23.360;2022-07-12T11:43:52;95680.81;;;25.77;32.87
3096;BME280;1558;42.700;23.360;2022-07-12T11:46:20;95644.47;;;26.84;32.12
3096;BME280;1558;42.700;23.360;2022-07-12T11:48:48;95684.16;;;27.69;30.15
3096;BME280;1558;42.700;23.360;2022-07-12T11:51:16;95654.16;;;27.12;30.54
3096;BME280;1558;42.700;23.360;2022-07-12T11:53:51;95667.34;;;27.60;30.43
3096;BME280;1558;42.700;23.360;2022-07-12T11:56:29;95667.25;;;27.27;31.05
3096;BME280;1558;42.700;23.360;2022-07-12T11:58:59;95670.97;;;26.85;31.56
3096;BME280;1558;42.700;23.360;2022-07-12T12:01:27;95661.56;;;26.40;31.50
3096;BME280;1558;42.700;23.360;2022-07-12T12:03:55;95671.19;;;26.08;31.24
3096;BME280;1558;42.700;23.360;2022-07-12T12:06:23;95661.47;;;26.24;30.99
3096;BME280;1558;42.700;23.360;2022-07-12T12:08:51;95628.41;;;25.70;31.42
3096;BME280;1558;42.700;23.360;2022-07-12T12:11:26;95665.69;;;25.85;30.94
3096;BME280;1558;42.700;23.360;2022-07-12T12:13:56;95659.84;;;26.65;30.85
3096;BME280;1558;42.700;23.360;2022-07-12T12:16:26;95658.91;;;26.75;30.14
3096;BME280;1558;42.700;23.360;2022-07-12T12:19:00;95654.97;;;26.73;31.26
3096;BME280;1558;42.700;23.360;2022-07-12T12:21:28;95660.13;;;26.51;30.89
3096;BME280;1558;42.700;23.360;2022-07-12T12:24:09;95657.50;;;26.25;30.96
3096;BME280;1558;42.700;23.360;2022-07-12T12:26:37;95656.06;;;26.16;31.39
3096;BME280;1558;42.700;23.360;2022-07-12T12:29:05;95645.94;;;26.30;32.23
3096;BME280;1558;42.700;23.360;2022-07-12T12:31:35;95643.06;;;24.87;34.12
3096;BME280;1558;42.700;23.360;2022-07-12T12:34:09;95656.50;;;24.51;35.08
3096;BME280;1558;42.700;23.360;2022-07-12T12:36:39;95643.66;;;24.71;34.46
3096;BME280;1558;42.700;23.360;2022-07-12T12:39:07;95655.91;;;25.27;34.03
3096;BME280;1558;42.700;23.360;2022-07-12T12:41:39;95657.69;;;25.41;33.84
3096;BME280;1558;42.700;23.360;2022-07-12T12:44:11;95639.50;;;25.17;33.60
3096;BME280;1558;42.700;23.360;2022-07-12T12:46:50;95656.66;;;25.05;33.97
3096;BME280;1558;42.700;23.360;2022-07-12T12:49:20;95646.75;;;25.34;33.42
3096;BME280;1558;42.700;23.360;2022-07-12T12:52:08;95656.19;;;25.10;33.81
3096;BME280;1558;42.700;23.360;2022-07-12T12:54:37;95643.19;;;25.07;33.83
3096;BME280;1558;42.700;23.360;2022-07-12T12:57:06;95623.56;;;24.71;34.33
3096;BME280;1558;42.700;23.360;2022-07-12T12:59:36;95615.19;;;24.48;34.87
3096;BME280;1558;42.700;23.360;2022-07-12T13:02:07;95601.41;;;24.14;34.89
3096;BME280;1558;42.700;23.360;2022-07-12T13:04:37;95644.78;;;25.08;35.02
3096;BME280;1558;42.700;23.360;2022-07-12T13:07:05;95620.38;;;24.72;34.49
3096;BME280;1558;42.700;23.360;2022-07-12T13:09:39;95643.69;;;24.68;34.38
3096;BME280;1558;42.700;23.360;2022-07-12T13:12:08;95647.31;;;24.31;34.98
3096;BME280;1558;42.700;23.360;2022-07-12T13:14:36;95596.03;;;24.67;34.05
3096;BME280;1558;42.700;23.360;2022-07-12T13:17:06;95634.25;;;25.76;33.84
3096;BME280;1558;42.700;23.360;2022-07-12T13:19:35;95627.44;;;26.27;32.95
3096;BME280;1558;42.700;23.360;2022-07-12T13:22:04;95642.53;;;27.01;31.07
3096;BME280;1558;42.700;23.360;2022-07-12T13:24:32;95636.28;;;26.97;31.60